Time;durP1;ratioP1;P1;durP2;ratioP2;P2;SDS_P1;SDS_P2;PMS_P1;PMS_P2;Temp;Humidity;BMP_temperature;BMP_pressure;BME280_temperature;BME280_humidity;BME280_pressure;Samples;Min_cycle;Max_cycle;Signal;HPM_P1;HPM_P2
2022/11/29 00:01:26;;;;;;;82.97;45.70;;;;;;;2.02;100.00;101052.73;1443412;89;23081;-78
2022/11/29 00:03:53;;;;;;;94.23;49.77;;;;;;;1.97;100.00;101044.75;1451557;89;22043;-79
2022/11/29 00:06:26;;;;;;;97.00;49.00;;;;;;;1.96;100.00;101040.46;1441471;90;22113;-79
2022/11/29 00:08:52;;;;;;;80.73;43.77;;;;;;;1.93;100.00;101045.84;1425430;90;22417;-83
2022/11/29 00:14:11;;;;;;;85.10;47.07;;;;;;;1.93;100.00;101052.37;1438341;89;22046;-80
2022/11/29 00:16:39;;;;;;;85.30;44.77;;;;;;;1.92;100.00;101045.44;1447582;90;22151;-80
2022/11/29 00:19:06;;;;;;;80.47;44.87;;;;;;;1.91;100.00;101035.92;1445632;90;22280;-80
2022/11/29 00:21:32;;;;;;;85.03;45.57;;;;;;;1.91;100.00;101035.92;1441427;90;22070;-81
2022/11/29 00:23:58;;;;;;;83.60;46.13;;;;;;;1.95;100.00;101039.59;1432006;90;22103;-80
2022/11/29 00:26:24;;;;;;;98.77;49.17;;;;;;;1.95;100.00;101039.59;1427788;91;21830;-80
2022/11/29 00:28:51;;;;;;;94.93;48.33;;;;;;;1.91;100.00;101038.53;1425701;90;21383;-80
2022/11/29 00:31:30;;;;;;;91.23;44.10;;;;;;;1.91;100.00;101041.15;1441894;90;22102;-79
2022/11/29 00:33:59;;;;;;;84.47;43.60;;;;;;;1.82;100.00;101042.92;1441324;89;22032;-80
2022/11/29 00:36:26;;;;;;;94.23;46.40;;;;;;;1.82;100.00;101042.92;1453485;88;21719;-81
2022/11/29 00:38:52;;;;;;;85.20;46.37;;;;;;;1.82;100.00;101045.53;1447927;89;21846;-79
2022/11/29 00:41:19;;;;;;;84.03;47.67;;;;;;;1.84;100.00;101044.97;1427440;90;22127;-80
2022/11/29 00:43:45;;;;;;;76.63;44.13;;;;;;;1.84;100.00;101044.97;1448940;90;22659;-79
2022/11/29 00:46:11;;;;;;;71.67;39.10;;;;;;;1.86;100.00;101040.53;1444088;89;21794;-80
2022/11/29 00:48:38;;;;;;;87.83;44.77;;;;;;;1.81;100.00;101032.91;1442426;89;22194;-80
2022/11/29 00:51:05;;;;;;;82.70;41.13;;;;;;;1.81;100.00;101032.91;1450267;89;22121;-80
2022/11/29 00:53:34;;;;;;;76.37;43.77;;;;;;;1.84;100.00;101035.37;1450473;90;21854;-80
2022/11/29 00:56:01;;;;;;;93.07;44.83;;;;;;;1.77;100.00;101025.70;1427010;90;21967;-80
2022/11/29 00:58:27;;;;;;;78.23;42.27;;;;;;;1.83;100.00;101034.16;1442664;90;21882;-80
2022/11/29 01:00:54;;;;;;;78.80;43.23;;;;;;;1.86;100.00;101041.83;1438788;89;21957;-80
2022/11/29 01:03:20;;;;;;;75.20;39.37;;;;;;;1.84;100.00;101039.28;1431223;90;22741;-78
2022/11/29 01:05:48;;;;;;;86.10;43.53;;;;;;;1.80;100.00;101034.69;1431303;90;21840;-78
2022/11/29 01:08:16;;;;;;;70.13;41.00;;;;;;;1.84;100.00;101034.53;1450513;90;21836;-78
2022/11/29 01:10:42;;;;;;;88.03;44.97;;;;;;;1.85;100.00;101029.72;1436896;89;21821;-79
2022/11/29 01:13:09;;;;;;;68.70;40.23;;;;;;;1.92;100.00;101034.99;1432616;90;22637;-79
2022/11/29 01:15:37;;;;;;;71.77;39.40;;;;;;;1.91;100.00;101028.09;1429111;90;21844;-78
2022/11/29 01:18:03;;;;;;;78.03;42.07;;;;;;;1.91;100.00;101028.09;1431553;89;21760;-78
2022/11/29 01:20:30;;;;;;;76.63;42.10;;;;;;;1.98;100.00;101038.59;1442748;90;22024;-79
2022/11/29 01:22:56;;;;;;;78.97;44.13;;;;;;;1.96;100.00;101033.94;1443693;90;21911;-78
2022/11/29 01:25:22;;;;;;;76.13;39.33;;;;;;;1.96;100.00;101033.94;1420486;90;21802;-77
2022/11/29 01:27:48;;;;;;;84.50;43.03;;;;;;;1.95;100.00;101037.45;1429370;90;21771;-78
2022/11/29 01:30:14;;;;;;;78.03;42.00;;;;;;;1.91;100.00;101032.85;1447335;90;21942;-80
2022/11/29 01:32:40;;;;;;;71.77;40.23;;;;;;;1.78;100.00;101014.36;1444159;90;22551;-80
2022/11/29 01:35:08;;;;;;;66.37;36.13;;;;;;;1.85;100.00;101033.63;1433945;91;23199;-78
2022/11/29 01:37:34;;;;;;;66.93;37.20;;;;;;;1.90;100.00;101031.61;1451078;90;22040;-79
2022/11/29 01:40:00;;;;;;;66.37;37.97;;;;;;;1.93;100.00;101032.78;1452056;89;21836;-79
2022/11/29 01:42:26;;;;;;;63.30;38.00;;;;;;;1.93;100.00;101031.48;1448275;90;22336;-79
2022/11/29 01:45:03;;;;;;;68.30;38.27;;;;;;;1.87;100.00;101029.16;1424458;90;22395;-79
2022/11/29 01:47:30;;;;;;;72.13;39.90;;;;;;;1.87;100.00;101029.16;1442249;90;22828;-79
2022/11/29 01:49:56;;;;;;;73.07;38.90;;;;;;;1.75;100.00;101025.39;1444794;90;21937;-80
2022/11/29 01:52:27;;;;;;;73.83;39.40;;;;;;;1.75;100.00;101025.39;1435770;90;22739;-80
2022/11/29 01:54:57;;;;;;;68.50;37.45;;;;;;;1.79;100.00;101020.42;1439583;88;21891;-80
2022/11/29 01:57:24;;;;;;;71.43;38.47;;;;;;;1.72;100.00;101017.25;1430719;90;21435;-80
2022/11/29 01:59:56;;;;;;;74.37;38.10;;;;;;;1.72;100.00;101017.25;1427573;91;21805;-81
2022/11/29 02:02:30;;;;;;;59.97;35.77;;;;;;;1.79;100.00;101028.25;1444422;90;23043;-81
2022/11/29 02:04:59;;;;;;;64.57;36.17;;;;;;;1.85;100.00;101024.49;1439665;89;21985;-79
2022/11/29 02:07:25;;;;;;;70.47;38.37;;;;;;;1.91;100.00;101026.79;1449775;90;21896;-80
2022/11/29 02:09:51;;;;;;;65.97;36.70;;;;;;;1.90;100.00;101015.94;1437611;89;22021;-80
2022/11/29 02:12:56;;;;;;;59.33;34.33;;;;;;;1.90;100.00;101015.94;1424884;89;21924;-79
2022/11/29 02:15:57;;;;;;;64.53;36.60;;;;;;;1.78;100.00;101016.97;1440396;90;21864;-78
2022/11/29 02:18:53;;;;;;;63.98;36.23;;;;;;;1.74;100.00;101021.95;1443315;90;21879;-78
2022/11/29 02:21:43;;;;;;;58.67;35.13;;;;;;;1.65;100.00;101027.63;1433550;89;21390;-80
2022/11/29 02:24:47;;;;;;;62.63;36.80;;;;;;;1.68;100.00;101022.72;1432632;90;21991;-80
2022/11/29 02:27:59;;;;;;;67.10;33.93;;;;;;;1.76;100.00;101029.25;1436115;90;21952;-80
2022/11/29 02:31:20;;;;;;;62.03;33.98;;;;;;;1.80;100.00;101033.37;1432427;90;21966;-80
2022/11/29 02:34:15;;;;;;;64.70;37.25;;;;;;;1.87;100.00;101026.55;1432428;90;21478;-80
2022/11/29 02:37:06;;;;;;;67.97;38.20;;;;;;;1.89;100.00;101029.46;1431733;90;21316;-80
2022/11/29 02:39:56;;;;;;;68.97;38.43;;;;;;;1.89;100.00;101029.46;1422814;91;21686;-80
2022/11/29 02:42:47;;;;;;;63.30;36.67;;;;;;;1.86;100.00;101025.70;1419261;90;21886;-80
2022/11/29 02:45:30;;;;;;;57.97;34.73;;;;;;;1.85;100.00;101023.19;1426148;91;21866;-80
2022/11/29 02:48:30;;;;;;;58.57;34.43;;;;;;;1.84;100.00;101026.70;1427451;91;22210;-80
2022/11/29 02:51:38;;;;;;;52.17;32.07;;;;;;;1.84;100.00;101026.70;1431390;91;22991;-79
2022/11/29 02:54:22;;;;;;;75.17;37.20;;;;;;;1.82;100.00;101024.19;1421133;91;21752;-80
2022/11/29 02:57:12;;;;;;;55.73;33.03;;;;;;;1.83;100.00;101021.95;1433719;90;22851;-80
2022/11/29 02:59:59;;;;;;;61.43;34.43;;;;;;;1.79;100.00;101031.70;1445136;90;21879;-79
2022/11/29 03:02:50;;;;;;;62.40;36.00;;;;;;;1.69;100.00;101026.55;1447744;90;21850;-78
2022/11/29 03:05:30;;;;;;;59.00;35.93;;;;;;;1.60;100.00;101024.39;1443025;90;21807;-79
2022/11/29 03:08:47;;;;;;;62.43;35.92;;;;;;;1.56;100.00;101030.70;1445311;90;22727;-79
2022/11/29 03:11:27;;;;;;;56.93;35.37;;;;;;;1.57;100.00;101032.38;1437989;90;21523;-80
2022/11/29 03:14:24;;;;;;;54.80;34.08;;;;;;;1.58;100.00;101034.05;1431305;90;21806;-80
2022/11/29 03:17:19;;;;;;;57.17;32.63;;;;;;;1.61;100.00;101033.06;1433549;91;21323;-79
2022/11/29 03:20:15;;;;;;;59.13;37.50;;;;;;;1.58;100.00;101027.09;1434668;90;21749;-79
2022/11/29 03:22:46;;;;;;;56.77;34.50;;;;;;;1.57;100.00;101032.38;1427267;90;22412;-80
2022/11/29 03:25:23;;;;;;;58.40;33.67;;;;;;;1.49;100.00;101025.38;1404675;92;21999;-80
2022/11/29 03:28:13;;;;;;;56.47;35.47;;;;;;;1.49;100.00;101025.38;1417122;92;21959;-80
2022/11/29 03:30:45;;;;;;;56.13;33.57;;;;;;;1.46;100.00;101025.06;1429846;89;21969;-79
2022/11/29 03:33:27;;;;;;;56.47;33.13;;;;;;;1.41;100.00;101024.47;1443202;89;21773;-78
2022/11/29 03:36:28;;;;;;;57.03;34.47;;;;;;;1.40;100.00;101022.75;1448251;89;22699;-80
2022/11/29 03:39:00;;;;;;;49.80;29.98;;;;;;;1.49;100.00;101029.29;1444403;90;21987;-79
2022/11/29 03:41:51;;;;;;;50.97;32.50;;;;;;;1.47;100.00;101023.33;1445083;88;22396;-80
2022/11/29 03:44:21;;;;;;;54.95;32.73;;;;;;;1.47;100.00;101023.33;1468868;89;22040;-79
2022/11/29 03:47:12;;;;;;;44.55;27.48;;;;;;;1.51;100.00;101032.67;1459973;89;21411;-79
2022/11/29 03:49:46;;;;;;;59.50;35.43;;;;;;;1.49;100.00;101031.90;1459895;89;21523;-80
2022/11/29 03:52:36;;;;;;;52.73;33.83;;;;;;;1.44;100.00;101033.87;1460771;89;22494;-79
2022/11/29 03:55:22;;;;;;;53.17;32.47;;;;;;;1.43;100.00;101033.50;1460690;89;22837;-79
2022/11/29 03:58:22;;;;;;;52.57;32.43;;;;;;;1.42;100.00;101026.14;1461442;89;21649;-80
2022/11/29 04:01:10;;;;;;;49.37;32.13;;;;;;;1.43;100.00;101036.95;1453534;89;21712;-80
2022/11/29 04:04:09;;;;;;;50.60;30.97;;;;;;;1.46;100.00;101029.44;1488444;87;21619;-78
2022/11/29 04:06:56;;;;;;;48.40;31.60;;;;;;;1.49;100.00;101024.07;1480375;87;21632;-79
2022/11/29 04:09:57;;;;;;;47.87;30.73;;;;;;;1.46;99.50;101032.05;1482871;87;21779;-80
2022/11/29 04:12:53;;;;;;;42.80;25.62;;;;;;;1.45;99.80;101031.67;1479211;87;21677;-80
2022/11/29 04:16:01;;;;;;;52.83;33.17;;;;;;;1.45;100.00;101032.98;1446602;89;21582;-80
2022/11/29 04:18:57;;;;;;;50.23;30.47;;;;;;;1.43;100.00;101040.03;1469089;89;22008;-79
2022/11/29 04:21:40;;;;;;;60.40;34.47;;;;;;;1.37;99.64;101039.02;1454143;89;22364;-79
2022/11/29 04:24:40;;;;;;;47.67;29.83;;;;;;;1.34;99.45;101042.16;1447314;89;22556;-78
2022/11/29 04:27:30;;;;;;;52.47;32.23;;;;;;;1.31;99.35;101039.69;1431062;89;21848;-79
2022/11/29 04:30:11;;;;;;;50.37;30.43;;;;;;;1.28;99.00;101043.75;1455053;89;21849;-79
2022/11/29 04:33:09;;;;;;;49.95;32.45;;;;;;;1.22;98.70;101043.21;1458754;89;21991;-79
2022/11/29 04:36:02;;;;;;;49.70;30.30;;;;;;;1.02;98.06;101048.05;1436810;89;21590;-79
2022/11/29 04:38:48;;;;;;;48.47;28.27;;;;;;;1.02;98.06;101048.05;1436593;90;21791;-79
2022/11/29 04:41:41;;;;;;;53.53;30.10;;;;;;;0.89;98.19;101052.53;1447430;88;22632;-79
2022/11/29 04:44:47;;;;;;;45.47;28.20;;;;;;;0.80;98.69;101055.54;1414221;89;21830;-79
2022/11/29 04:47:56;;;;;;;46.70;27.77;;;;;;;0.75;98.79;101058.84;1473138;88;21734;-80
2022/11/29 04:51:00;;;;;;;43.80;27.00;;;;;;;0.71;98.81;101059.03;1483799;88;22381;-79
2022/11/29 04:53:55;;;;;;;49.77;28.47;;;;;;;0.64;98.49;101058.01;1472003;87;21711;-80
2022/11/29 04:56:47;;;;;;;47.00;29.40;;;;;;;0.56;98.41;101052.75;1483740;87;21704;-80
2022/11/29 04:59:40;;;;;;;46.67;28.97;;;;;;;0.42;98.80;101054.20;1480769;87;21550;-80
2022/11/29 05:02:49;;;;;;;46.07;29.70;;;;;;;0.30;99.37;101056.04;1484202;88;21755;-79
2022/11/29 05:05:36;;;;;;;45.40;26.90;;;;;;;0.22;100.00;101060.73;1480427;87;21517;-80
2022/11/29 05:08:44;;;;;;;49.80;28.73;;;;;;;0.17;100.00;101059.64;1486163;88;21469;-80
2022/11/29 05:11:27;;;;;;;52.63;30.17;;;;;;;0.19;100.00;101060.86;1481540;88;21613;-80
2022/11/29 05:14:17;;;;;;;52.90;32.87;;;;;;;0.17;100.00;101061.38;1481900;88;21642;-80
2022/11/29 05:16:55;;;;;;;43.87;27.90;;;;;;;0.13;100.00;101061.13;1480000;87;21851;-80
2022/11/29 05:19:59;;;;;;;58.53;32.80;;;;;;;0.04;100.00;101060.22;1484930;87;21376;-80
2022/11/29 05:22:57;;;;;;;47.60;30.03;;;;;;;-0.03;100.00;101063.09;1471938;88;21673;-82
2022/11/29 05:25:35;;;;;;;55.03;30.50;;;;;;;-0.06;100.00;101060.62;1476566;87;21401;-80
2022/11/29 05:28:31;;;;;;;46.47;29.57;;;;;;;-0.08;100.00;101063.73;1482325;88;21761;-80
2022/11/29 05:31:25;;;;;;;56.37;32.80;;;;;;;-0.08;100.00;101067.63;1477522;88;21568;-79
2022/11/29 05:34:05;;;;;;;58.40;33.90;;;;;;;-0.10;100.00;101064.70;1481794;87;21497;-79
2022/11/29 05:37:16;;;;;;;51.60;28.23;;;;;;;-0.15;100.00;101066.18;1490094;88;21554;-79
2022/11/29 05:40:03;;;;;;;48.20;30.10;;;;;;;-0.18;100.00;101075.41;1488700;88;22346;-78
2022/11/29 05:43:02;;;;;;;59.47;34.80;;;;;;;-0.19;100.00;101075.50;1476145;88;21539;-81
2022/11/29 05:45:53;;;;;;;50.87;29.63;;;;;;;-0.18;100.00;101075.88;1478987;87;21530;-81
2022/11/29 05:48:34;;;;;;;;;;;;;;;-0.19;100.00;101075.50;1494622;87;21818;-79
2022/11/29 05:51:30;;;;;;;50.48;30.02;;;;;;;-0.20;100.00;101083.77;1478859;88;20426;-80
2022/11/29 05:54:31;;;;;;;64.83;36.43;;;;;;;-0.28;100.00;101080.63;1483812;87;21421;-80
2022/11/29 05:57:18;;;;;;;58.02;32.48;;;;;;;-0.36;100.00;101078.31;1484569;88;22903;-80
2022/11/29 05:59:46;;;;;;;56.07;31.40;;;;;;;-0.38;100.00;101087.09;1487421;87;21345;-79
2022/11/29 06:02:35;;;;;;;59.53;30.77;;;;;;;-0.37;100.00;101090.10;1484054;88;21528;-80
2022/11/29 06:05:41;;;;;;;51.37;29.13;;;;;;;-0.35;100.00;101094.77;1477848;87;21589;-78
2022/11/29 06:08:24;;;;;;;56.73;33.10;;;;;;;-0.41;100.00;101097.16;1486832;87;21438;-80
2022/11/29 06:11:25;;;;;;;56.97;32.03;;;;;;;-0.47;100.00;101094.80;1486961;87;21550;-80
2022/11/29 06:14:30;;;;;;;67.82;37.58;;;;;;;-0.53;100.00;101098.49;1483016;86;22480;-81
2022/11/29 06:17:08;;;;;;;61.73;36.07;;;;;;;-0.54;100.00;101094.21;1469728;88;21439;-80
2022/11/29 06:19:49;;;;;;;60.87;36.67;;;;;;;-0.53;100.00;101098.95;1482655;87;21548;-82
2022/11/29 06:22:42;;;;;;;54.42;30.32;;;;;;;-0.52;100.00;101096.73;1476574;88;21571;-79
2022/11/29 06:25:36;;;;;;;65.87;36.53;;;;;;;-0.51;100.00;101100.59;1482642;87;21368;-81
2022/11/29 06:28:46;;;;;;;64.03;35.07;;;;;;;-0.50;100.00;101100.97;1483012;88;21512;-81
2022/11/29 06:31:23;;;;;;;64.67;34.77;;;;;;;-0.51;100.00;101101.89;1483351;88;21737;-80
2022/11/29 06:34:10;;;;;;;54.67;30.77;;;;;;;-0.50;100.00;101104.03;1485309;88;22539;-80
2022/11/29 06:37:06;;;;;;;57.67;31.90;;;;;;;-0.50;100.00;101099.67;1454096;88;21617;-79
2022/11/29 06:39:33;;;;;;;55.30;29.80;;;;;;;-0.46;100.00;101105.16;1482956;88;21638;-79
2022/11/29 06:41:59;;;;;;;51.13;27.93;;;;;;;-0.44;100.00;101105.08;1487498;88;21615;-80
2022/11/29 06:44:26;;;;;;;45.03;28.93;;;;;;;-0.43;100.00;101103.32;1487704;87;21514;-80
2022/11/29 06:47:07;;;;;;;50.37;29.03;;;;;;;-0.43;100.00;101103.32;1488061;88;21755;-80
2022/11/29 06:49:37;;;;;;;;;;;;;;;-0.42;100.00;101106.34;1483563;88;21663;-84
2022/11/29 06:52:37;;;;;;;58.20;31.57;;;;;;;-0.39;100.00;101102.31;1480161;87;20841;-85
2022/11/29 06:55:15;;;;;;;48.58;28.65;;;;;;;-0.37;100.00;101105.25;1488539;88;21514;-84
2022/11/29 06:58:11;;;;;;;47.97;27.63;;;;;;;-0.35;100.00;101102.56;1475969;88;22491;-79
2022/11/29 07:00:46;;;;;;;47.57;24.27;;;;;;;-0.31;100.00;101104.16;1434001;90;21874;-89
2022/11/29 07:03:52;;;;;;;37.60;23.27;;;;;;;-0.30;100.00;101103.23;1438136;90;21634;-86
2022/11/29 07:06:26;;;;;;;46.00;25.97;;;;;;;-0.25;100.00;101105.20;1437702;90;21762;-87
2022/11/29 07:09:15;;;;;;;43.63;27.17;;;;;;;-0.16;100.00;101104.83;1436047;90;21608;-87
2022/11/29 07:11:43;;;;;;;108.07;57.07;;;;;;;-0.10;100.00;101101.97;1434630;90;21533;-88
2022/11/29 07:14:10;;;;;;;48.83;27.03;;;;;;;0.01;100.00;101104.59;1444071;89;21721;-88
2022/11/29 07:16:48;;;;;;;45.83;27.07;;;;;;;0.10;100.00;101101.14;1439472;90;21692;-88
2022/11/29 07:19:28;;;;;;;49.93;28.03;;;;;;;0.18;100.00;101099.08;1441483;90;21696;-89
2022/11/29 07:22:38;;;;;;;48.02;29.12;;;;;;;0.30;100.00;101102.91;1442614;90;22779;-88
2022/11/29 07:25:22;;;;;;;40.90;25.57;;;;;;;0.40;100.00;101102.05;1441918;90;21412;-89
2022/11/29 07:27:59;;;;;;;42.47;24.90;;;;;;;0.54;100.00;101101.45;1445652;90;22679;-88
2022/11/29 07:30:43;;;;;;;42.37;24.83;;;;;;;0.66;100.00;101097.87;1441916;90;21588;-88
2022/11/29 07:33:45;;;;;;;41.93;24.47;;;;;;;0.79;100.00;101094.25;1490892;86;23184;-89
2022/11/29 07:36:31;;;;;;;43.00;22.03;;;;;;;0.90;100.00;101095.92;1489580;87;21606;-89
2022/11/29 07:39:09;;;;;;;40.20;26.20;;;;;;;0.99;99.25;101093.81;1493067;87;21781;-87
2022/11/29 07:41:46;;;;;;;42.80;27.10;;;;;;;1.04;99.07;101096.60;1451370;87;21720;-89
2022/11/29 07:44:27;;;;;;;43.00;26.23;;;;;;;1.10;98.43;101100.69;1500586;86;21568;-89
2022/11/29 07:46:53;;;;;;;39.95;24.90;;;;;;;1.16;97.88;101096.95;1458869;89;21544;-89
2022/11/29 07:49:19;;;;;;;53.37;32.03;;;;;;;1.26;97.92;101100.81;1468265;89;21346;-89
2022/11/29 07:51:45;;;;;;;39.37;23.77;;;;;;;1.35;97.91;101103.85;1457827;89;21634;-90
2022/11/29 07:54:16;;;;;;;43.30;24.00;;;;;;;1.55;96.57;101100.73;1467176;89;22434;-88
2022/11/29 07:56:42;;;;;;;41.42;23.73;;;;;;;1.55;96.57;101100.73;1472193;86;22856;-86
2022/11/29 07:59:11;;;;;;;39.20;24.47;;;;;;;1.71;96.26;101099.09;1495260;86;21300;-90
2022/11/29 08:01:40;;;;;;;42.43;24.67;;;;;;;1.78;95.82;101097.88;1496340;86;21555;-88
2022/11/29 08:04:08;;;;;;;47.00;26.40;;;;;;;1.78;95.82;101097.88;1488276;86;21926;-90
2022/11/29 08:06:35;;;;;;;48.07;28.17;;;;;;;1.94;95.50;101099.73;1496506;86;21676;-90
2022/11/29 08:09:03;;;;;;;35.37;21.97;;;;;;;1.94;95.50;101099.73;1512313;86;21827;-89
2022/11/29 08:11:29;;;;;;;39.97;21.57;;;;;;;2.09;95.03;101079.38;1508551;86;21818;-89
2022/11/29 08:13:59;;;;;;;33.07;19.90;;;;;;;2.28;95.51;101090.21;1493927;86;22723;-90
2022/11/29 08:16:28;;;;;;;34.30;21.70;;;;;;;2.28;95.51;101090.21;1485729;87;21955;-89
2022/11/29 08:18:54;;;;;;;56.13;34.23;;;;;;;2.42;93.42;101081.20;1458167;88;22171;-90
2022/11/29 08:21:20;;;;;;;48.93;30.40;;;;;;;2.42;93.42;101081.20;1460809;88;22059;-90
2022/11/29 08:23:48;;;;;;;37.07;23.63;;;;;;;2.52;91.94;101094.16;1490469;86;21353;-90
2022/11/29 08:26:16;;;;;;;52.23;33.50;;;;;;;2.59;91.72;101100.77;1496353;86;22105;-90
2022/11/29 08:28:42;;;;;;;41.90;25.03;;;;;;;2.66;90.87;101102.59;1482617;87;23045;-90
2022/11/29 08:31:11;;;;;;;40.10;24.53;;;;;;;2.70;90.77;101102.80;1505962;86;22097;-90
2022/11/29 08:33:41;;;;;;;39.10;24.83;;;;;;;2.71;88.33;101108.43;1510303;86;22014;-89
2022/11/29 08:36:11;;;;;;;42.37;25.60;;;;;;;2.77;88.85;101107.27;1509937;86;22134;-87
2022/11/29 08:38:38;;;;;;;43.98;26.73;;;;;;;2.89;88.92;101102.21;1460730;86;22118;-88
2022/11/29 08:41:08;;;;;;;41.73;22.87;;;;;;;2.91;87.19;101104.77;1511495;86;21306;-89
2022/11/29 08:43:35;;;;;;;30.32;17.98;;;;;;;3.08;89.04;101112.55;1512002;86;22453;-88
2022/11/29 08:46:01;;;;;;;31.20;19.60;;;;;;;3.18;87.85;101108.12;1509185;86;21544;-86
2022/11/29 08:48:27;;;;;;;39.80;23.97;;;;;;;3.29;87.54;101112.30;1511267;86;23151;-90
2022/11/29 08:50:55;;;;;;;72.57;44.73;;;;;;;3.39;87.00;101109.55;1507507;85;21316;-91
2022/11/29 08:55:51;;;;;;;43.77;28.43;;;;;;;3.63;87.80;101103.89;1482698;85;25583;-88
2022/11/29 08:58:19;;;;;;;40.77;27.17;;;;;;;3.63;85.03;101101.28;1486167;87;21448;-88
2022/11/29 09:00:45;;;;;;;35.10;21.50;;;;;;;3.74;85.76;101104.97;1482995;87;22187;-87
2022/11/29 09:06:00;;;;;;;36.50;23.97;;;;;;;3.98;85.74;101104.02;1489811;87;21559;-89
2022/11/29 09:08:26;;;;;;;34.10;20.67;;;;;;;4.15;85.26;101094.34;1481896;87;21701;-90
2022/11/29 09:10:52;;;;;;;63.57;38.07;;;;;;;4.21;82.05;101093.98;1566492;87;22281;-89
2022/11/29 09:13:18;;;;;;;40.93;25.87;;;;;;;4.36;84.46;101089.12;1485259;87;22397;-90
2022/11/29 09:15:44;;;;;;;36.77;23.57;;;;;;;4.44;83.23;101088.69;1486127;87;22565;-90
2022/11/29 09:18:10;;;;;;;46.57;22.90;;;;;;;4.52;83.26;101087.29;1484479;87;21648;-87
2022/11/29 09:20:36;;;;;;;32.20;20.07;;;;;;;4.58;82.18;101083.92;1486056;87;21434;-89
2022/11/29 09:23:03;;;;;;;41.13;25.73;;;;;;;4.69;83.89;101074.91;1488903;87;21376;-88
2022/11/29 09:25:29;;;;;;;29.30;19.50;;;;;;;4.83;83.80;101078.84;1496018;87;21413;-85
2022/11/29 09:28:00;;;;;;;36.23;23.77;;;;;;;4.93;82.07;101073.41;1486392;87;22500;-88
2022/11/29 09:30:28;;;;;;;26.77;18.48;;;;;;;5.48;81.87;101073.48;1492498;87;21701;-90
2022/11/29 09:32:54;;;;;;;32.43;20.77;;;;;;;6.39;80.63;101075.77;1488355;87;21737;-89
2022/11/29 09:35:20;;;;;;;26.87;19.30;;;;;;;7.13;75.15;101070.61;1483902;87;21471;-89
2022/11/29 09:37:46;;;;;;;57.27;32.83;;;;;;;7.71;70.24;101073.44;1485325;87;21435;-89
2022/11/29 09:40:20;;;;;;;25.37;18.20;;;;;;;8.41;73.99;101068.65;1488589;87;21500;-90
2022/11/29 09:43:24;;;;;;;21.20;15.67;;;;;;;8.88;72.21;101066.25;1487758;87;21560;-91
2022/11/29 09:46:07;;;;;;;25.60;16.23;;;;;;;9.30;70.39;101062.97;1485384;87;21893;-87
2022/11/29 09:49:10;;;;;;;23.73;14.97;;;;;;;9.60;65.87;101064.91;1426492;87;21551;-85
2022/11/29 09:52:06;;;;;;;21.23;16.10;;;;;;;9.85;65.77;101063.23;1487516;87;21593;-86
2022/11/29 09:54:38;;;;;;;25.37;17.97;;;;;;;9.92;65.96;101060.42;1485800;87;21553;-85
2022/11/29 09:57:05;;;;;;;20.87;15.80;;;;;;;10.16;64.03;101056.72;1487859;88;21567;-87
2022/11/29 09:59:43;;;;;;;47.47;29.50;;;;;;;10.22;60.49;101052.23;1461428;88;21545;-89
2022/11/29 10:02:33;;;;;;;27.07;18.77;;;;;;;10.34;60.28;101050.37;1489366;87;22521;-90
2022/11/29 10:05:13;;;;;;;21.33;17.48;;;;;;;10.59;60.50;101059.21;1455086;88;21420;-88
2022/11/29 10:07:47;;;;;;;24.90;16.93;;;;;;;10.88;60.70;101051.88;1480137;88;21524;-89
2022/11/29 10:10:19;;;;;;;19.40;15.10;;;;;;;10.82;61.00;101047.95;1478905;88;22314;-88
2022/11/29 10:12:53;;;;;;;26.47;18.50;;;;;;;11.08;60.92;101050.13;1484380;88;21465;-89
2022/11/29 10:15:29;;;;;;;21.93;16.00;;;;;;;10.91;56.87;101045.47;1477829;88;21501;-88
2022/11/29 10:18:12;;;;;;;32.93;24.53;;;;;;;11.07;58.63;101046.61;1491411;88;21477;-88
2022/11/29 10:20:41;;;;;;;20.03;14.73;;;;;;;11.09;58.35;101045.66;1467762;88;21465;-87
2022/11/29 10:23:41;;;;;;;21.03;15.57;;;;;;;11.11;56.64;101037.09;1479107;88;21427;-89
2022/11/29 10:26:11;;;;;;;29.18;20.68;;;;;;;11.20;59.05;101033.13;1477048;88;22336;-89
2022/11/29 10:28:42;;;;;;;28.90;18.20;;;;;;;11.20;59.05;101033.13;1462349;88;22344;-85
2022/11/29 10:31:29;;;;;;;24.87;17.32;;;;;;;11.30;56.17;101032.64;1483003;88;22503;-88
2022/11/29 10:34:00;;;;;;;22.27;15.93;;;;;;;11.29;56.94;101027.00;1488204;88;21413;-89
2022/11/29 10:36:50;;;;;;;37.28;19.82;;;;;;;11.33;57.65;101031.53;1474770;88;21560;-89
2022/11/29 10:39:27;;;;;;;36.30;21.48;;;;;;;11.13;56.88;101027.18;1483621;88;22931;-89
2022/11/29 10:41:57;;;;;;;32.13;19.57;;;;;;;11.08;57.70;101023.63;1482139;88;21590;-84
2022/11/29 10:44:24;;;;;;;61.95;32.25;;;;;;;11.15;57.66;101023.42;1482822;88;21463;-88
2022/11/29 10:46:52;;;;;;;49.70;24.90;;;;;;;11.21;57.50;101016.74;1466359;88;22515;-89
2022/11/29 10:49:22;;;;;;;45.93;27.47;;;;;;;11.28;55.18;101021.36;1482953;88;22359;-89
2022/11/29 10:51:48;;;;;;;34.70;23.27;;;;;;;11.44;57.20;101016.83;1488958;88;21567;-88
2022/11/29 10:54:32;;;;;;;20.07;14.63;;;;;;;11.67;57.23;101016.55;1484952;88;21479;-89
2022/11/29 10:57:00;;;;;;;26.10;18.63;;;;;;;11.83;56.64;101016.00;1485477;88;21582;-89
2022/11/29 10:59:31;;;;;;;19.73;13.40;;;;;;;12.03;57.16;101015.52;1483964;88;21486;-88
2022/11/29 11:01:59;;;;;;;16.20;12.17;;;;;;;12.00;54.39;101010.00;1473605;88;21449;-88
2022/11/29 11:04:33;;;;;;;16.47;13.03;;;;;;;11.89;54.57;101014.14;1478968;88;21450;-89
2022/11/29 11:07:03;;;;;;;20.13;13.67;;;;;;;11.83;53.34;101018.16;1484335;88;21435;-88
2022/11/29 11:09:50;;;;;;;16.73;12.37;;;;;;;11.86;55.80;101009.12;1483923;88;22337;-89
2022/11/29 11:12:21;;;;;;;16.97;13.13;;;;;;;11.71;54.46;101008.19;1474309;88;21442;-89
2022/11/29 11:14:47;;;;;;;19.17;12.17;;;;;;;11.44;54.88;101010.20;1474189;88;21501;-88
2022/11/29 11:17:31;;;;;;;14.83;12.03;;;;;;;11.49;55.48;101009.80;1479451;87;21450;-89
2022/11/29 11:20:07;;;;;;;15.73;12.23;;;;;;;11.46;52.99;101013.56;1484273;87;21559;-89
2022/11/29 11:22:38;;;;;;;20.83;13.40;;;;;;;11.32;53.48;101008.66;1490704;87;22513;-87
2022/11/29 11:25:08;;;;;;;16.17;11.80;;;;;;;11.45;55.38;101008.38;1443095;90;21552;-88
2022/11/29 11:27:40;;;;;;;15.83;11.90;;;;;;;11.46;53.78;101008.75;1467587;87;21742;-88
2022/11/29 11:30:25;;;;;;;15.47;11.53;;;;;;;11.65;55.43;101006.57;1485930;87;21495;-89
2022/11/29 11:33:23;;;;;;;15.13;11.13;;;;;;;11.76;55.56;101009.08;1475490;88;21622;-88
2022/11/29 11:36:22;;;;;;;15.40;12.00;;;;;;;11.84;55.29;101009.70;1480160;87;21645;-89
2022/11/29 11:38:55;;;;;;;20.00;13.60;;;;;;;11.89;54.68;101010.16;1481375;87;21413;-89
2022/11/29 11:44:40;;;;;;;15.80;12.23;;;;;;;11.64;54.14;101013.69;1465606;87;21536;-89
2022/11/29 11:47:23;;;;;;;16.70;13.03;;;;;;;11.45;51.73;101014.55;1464931;88;21391;-89
2022/11/29 11:50:03;;;;;;;16.53;12.47;;;;;;;11.51;52.76;101014.48;1477692;88;21457;-88
2022/11/29 11:52:44;;;;;;;13.93;11.03;;;;;;;11.56;54.15;101013.55;1482640;87;21368;-87
2022/11/29 11:55:38;;;;;;;14.83;12.15;;;;;;;11.46;53.39;101013.56;1474835;88;21702;-89
2022/11/29 11:58:13;;;;;;;15.67;11.57;;;;;;;11.60;54.14;101010.98;1477759;88;22529;-90
2022/11/29 12:00:58;;;;;;;15.10;10.83;;;;;;;11.59;54.08;101005.31;1478228;87;21630;-90
2022/11/29 12:03:47;;;;;;;15.77;12.50;;;;;;;11.58;53.91;101008.95;1475002;88;21577;-90
2022/11/29 12:06:54;;;;;;;14.30;11.97;;;;;;;11.66;53.74;101005.61;1473020;86;21381;-89
2022/11/29 12:09:50;;;;;;;22.40;11.10;;;;;;;11.59;53.98;101001.83;1479406;88;21404;-89
2022/11/29 12:12:35;;;;;;;17.07;12.03;;;;;;;11.52;53.15;101009.52;1411167;92;21621;-88
2022/11/29 12:15:19;;;;;;;16.27;11.40;;;;;;;11.59;54.27;101009.29;1476437;88;21721;-87
2022/11/29 12:18:05;;;;;;;16.67;12.23;;;;;;;11.61;54.07;101013.97;1479965;88;21427;-89
2022/11/29 12:21:01;;;;;;;13.47;11.43;;;;;;;11.75;54.07;101012.22;1456195;88;21560;-89